Terminal Aerodrome Forecast
Issued by NWS

Home | Current Version | Previous Version | Text Only | Print | Product List | Glossary On
Versions: 1 2 3 4 5 6 7 8 9 10 11 12 13 14
000
FTUS43 KIWX 241700
TAFSBN
TAF
KSBN 241720Z 2418/2518 16011KT P6SM SCT060
     FM250600 18015G24KT P6SM BKN050 WS020/20050KT
     FM251200 20023G30KT P6SM OVC040=

USA.gov is the U.S. government's official web portal to all federal, state and local government web resources and services.